AirNav   TITAN Aviation Fuels
 
 1201 users online  

TA42 Twisted T Field Airport
Burton, Texas, USA

GOING TO BURTON?


FAA INFORMATION EFFECTIVE 04 NOVEMBER 2021

Location

FAA Identifier: TA42
Lat/Long: 30-15-36.8200N 096-35-52.2100W
30-15.613667N 096-35.870167W
30.2602278,-96.5978361
(estimated)
Elevation: 316 ft. / 96 m (estimated)
From city: 5 miles NNE of BURTON, TX
Time zone: UTC -5 (UTC -6 during Standard Time)
Zip code: 77879

Airport Operations

Airport use: Private use. Permission required prior to landing
Activation date: 10/2016
Control tower: no
ARTCC: HOUSTON CENTER
FSS: FORT WORTH FLIGHT SERVICE STATION
Attendance: 
Segmented circle: no

Airport Communications

WX AWOS-3 at 11R (12 nm E): 121.125 (979-836-2303)
WX AWOS-3PT at RWV (16 nm N): 118.35 (979-567-6784)

Nearby radio navigation aids

VOR radial/distance  VOR name  Freq  Var
IDUr346/18.3INDUSTRY VORTAC110.2008E
CLLr196/22.6COLLEGE STATION VORTAC113.3008E
TNVr259/28.0NAVASOTA VOR/DME115.9008E
ELAr330/38.7EAGLE LAKE VOR/DME116.4008E

Airport Services

Runway Information

Runway 9/27

Dimensions: 2300 x 60 ft. / 701 x 18 m
Surface: turf
RUNWAY 9  RUNWAY 27
Traffic pattern: leftleft
Displaced threshold: no200 ft.
Obstructions: none10 ft. 200

Airport Ownership and Management from official FAA records

Ownership: Privately-owned
Owner: TIMOTHY G TREADWAY
3306 CAPE FOREST DRIVE
KINGWOOD, TX 77345
Phone 832-527-8415
Manager: TIMOTHY G TREADWAY
3306 CAPE FOREST DRIVE
KINGWOOD, TX 77345
Phone (832) 527-8415

Additional Remarks

FOR CD CTC HOUSTON ARTCC AT 281-230-5622.

Instrument Procedures

There are no published instrument procedures at TA42.

Some nearby airports with instrument procedures:

11R - Brenham Municipal Airport (12 nm E)
KRWV - Caldwell Municipal Airport (16 nm N)
KGYB - Giddings-Lee County Airport (21 nm W)
KCLL - Easterwood Field Airport (23 nm NE)
60R - Navasota Municipal Airport (26 nm E)
 
Loc | Ops | Rwys | IFR | FBO | Links
Com | Nav | Svcs | Stats | Notes
Aerial photo
No photo
 
Airport distance calculator
Flying to Twisted T Field Airport? Find the distance to fly.

From to TA42

Sunrise and sunset
Times for 27-Nov-2021
 Local
(UTC-6)
 Zulu
(UTC)
Morning civil twilight06:3712:37
Sunrise07:0313:03
Sunset17:2523:25
Evening civil twilight17:5123:51

Current date and time
Zulu (UTC)  27-Nov-2021 15:44:03
Local (UTC-6)  27-Nov-2021 09:44:03
 
METAR
K11R 
12nm E 
271515Z AUTO 00000KT 10SM BKN085 OVC095 11/06 A3020 RMK AO2 T01070056
KRWV 
16nm N 
271515Z AUTO 20006KT 10SM DZ OVC110 09/05 A3019 RMK AO2 T00930048
KGYB 
21nm W 
271515Z AUTO 22004KT 5SM RA SCT024 BKN032 OVC055 08/07 A3019 RMK AO2 P0002 T00770065
KCLL 
23nm NE 
271453Z 17005KT 10SM OVC100 10/04 A3017 RMK AO2 RAE04 SLP217 P0000 60000 T01000044 53004
TAF
KCLL 
23nm NE 
271136Z 2712/2812 18003KT P6SM OVC110 FM271500 VRB04KT P6SM -RA OVC090 TEMPO 2715/2719 4SM -SHRA BR OVC026 FM272000 VRB04KT 6SM BR OVC035 TEMPO 2720/2721 4SM -SHRA BR OVC020 FM272100 VRB04KT 5SM -SHRA BR OVC023 FM272200 VRB03KT 5SM -SHRA BR OVC008 FM280000 VRB03KT 4SM RA BR OVC006 FM280700 00000KT 5SM BR VCSH OVC004
NOTAMs
Click for the latest NOTAMs
NOTAMs are issued by the DoD/FAA and will open in a separate window not controlled by AirNav.

 

 
 

Would you like to see your business listed on this page?

 If your business provides an interesting product or service to pilots, flight crews, aircraft, or users of the Twisted T Field Airport, you should consider listing it here.  To start the listing process, click on the button below
 
Add a business
 

Other Pages about Twisted T Field Airport

Update a link
 
Copyright © AirNav, LLC. All rights reserved. Privacy Policy  Contact